Time;durP1;ratioP1;P1;durP2;ratioP2;P2;SDS_P1;SDS_P2;PMS_P1;PMS_P2;Temp;Humidity;BMP_temperature;BMP_pressure;BME280_temperature;BME280_humidity;BME280_pressure;Samples;Min_cycle;Max_cycle;Signal;HPM_P1;HPM_P2
2022/04/28 00:00:07;;;;;;;12.67;8.13;;;5.00;94.00;;;;;;5022567;28;20433;-64
2022/04/28 00:02:33;;;;;;;10.97;8.03;;;5.00;94.10;;;;;;5033450;28;20440;-64
2022/04/28 00:05:00;;;;;;;12.33;8.77;;;5.00;94.10;;;;;;5020580;28;20425;-64
2022/04/28 00:07:26;;;;;;;11.73;8.87;;;4.90;94.10;;;;;;5016326;28;20452;-64
2022/04/28 00:09:51;;;;;;;12.30;8.77;;;4.90;94.20;;;;;;5017410;28;20437;-64
2022/04/28 00:12:17;;;;;;;11.67;8.83;;;4.90;94.20;;;;;;5017217;28;20671;-65
2022/04/28 00:14:43;;;;;;;10.20;8.83;;;4.90;94.00;;;;;;5033475;28;20174;-65
2022/04/28 00:17:09;;;;;;;14.40;9.40;;;4.90;94.30;;;;;;5052873;28;20217;-66
2022/04/28 00:19:35;;;;;;;15.87;10.13;;;4.90;94.10;;;;;;5053046;28;20469;-66
2022/04/28 00:22:01;;;;;;;12.53;10.33;;;4.90;94.40;;;;;;5037140;28;20179;-66
2022/04/28 00:24:26;;;;;;;11.33;8.97;;;4.90;94.20;;;;;;4986448;28;20196;-66
2022/04/28 00:26:52;;;;;;;12.17;8.63;;;4.90;94.30;;;;;;5016697;28;20184;-65
2022/04/28 00:29:18;;;;;;;10.77;9.20;;;4.80;94.10;;;;;;5017083;28;20254;-66
2022/04/28 00:31:44;;;;;;;15.67;9.73;;;4.80;94.20;;;;;;5025681;28;20195;-65
2022/04/28 00:34:10;;;;;;;10.63;9.37;;;4.80;94.20;;;;;;5016990;28;20415;-65
2022/04/28 00:36:36;;;;;;;20.57;10.67;;;4.80;94.30;;;;;;5028501;28;20194;-66
2022/04/28 00:39:03;;;;;;;14.03;10.57;;;4.80;94.40;;;;;;5040722;28;20501;-66
2022/04/28 00:41:28;;;;;;;14.90;9.67;;;4.80;94.40;;;;;;5016773;28;20214;-66
2022/04/28 00:43:54;;;;;;;13.03;9.43;;;4.80;94.40;;;;;;5006732;28;20483;-66
2022/04/28 00:46:21;;;;;;;14.67;9.77;;;4.80;94.30;;;;;;5067278;28;20181;-63
2022/04/28 00:51:34;;;;;;;13.60;9.17;;;4.80;94.50;;;;;;5033154;28;20552;-63
2022/04/28 00:54:01;;;;;;;13.37;9.83;;;4.80;94.50;;;;;;5035903;28;20428;-63
2022/04/28 00:56:28;;;;;;;11.90;9.07;;;4.70;94.20;;;;;;5000776;28;21007;-65
2022/04/28 00:58:56;;;;;;;15.10;9.03;;;4.70;94.30;;;;;;5026609;28;20468;-65
2022/04/28 01:01:22;;;;;;;15.80;9.93;;;4.70;94.20;;;;;;5068364;28;20449;-65
2022/04/28 01:03:48;;;;;;;10.20;8.00;;;4.70;94.40;;;;;;5019624;28;20425;-65
2022/04/28 01:06:14;;;;;;;15.67;10.73;;;4.60;94.10;;;;;;5019387;28;20448;-65
2022/04/28 01:08:40;;;;;;;12.67;9.30;;;4.60;94.00;;;;;;5035040;28;20273;-65
2022/04/28 01:11:07;;;;;;;11.87;8.73;;;4.60;94.10;;;;;;5018686;28;20491;-65
2022/04/28 01:13:33;;;;;;;14.70;9.53;;;4.60;94.10;;;;;;5034910;28;20414;-66
2022/04/28 01:15:59;;;;;;;11.00;7.97;;;4.50;94.10;;;;;;5016844;28;20463;-66
2022/04/28 01:18:25;;;;;;;9.97;7.77;;;4.60;94.20;;;;;;5018757;28;20460;-66
2022/04/28 01:20:50;;;;;;;12.80;10.13;;;4.50;93.80;;;;;;5018940;28;20209;-66
2022/04/28 01:23:18;;;;;;;12.07;9.53;;;4.60;94.20;;;;;;5015628;28;20191;-66
2022/04/28 01:25:44;;;;;;;10.20;8.03;;;4.50;94.00;;;;;;5032386;28;20191;-66
2022/04/28 01:28:10;;;;;;;15.80;9.63;;;4.50;94.10;;;;;;5048467;28;21000;-66
2022/04/28 01:30:37;;;;;;;9.73;8.20;;;4.40;93.80;;;;;;5051532;28;20481;-66
2022/04/28 01:33:04;;;;;;;10.80;8.23;;;4.40;94.00;;;;;;5035182;28;20232;-66
2022/04/28 01:35:30;;;;;;;12.80;9.07;;;4.40;94.10;;;;;;5034661;28;20418;-66
2022/04/28 01:37:55;;;;;;;11.03;8.30;;;4.40;94.20;;;;;;5001397;28;20497;-66
2022/04/28 01:40:21;;;;;;;10.87;8.80;;;4.30;94.10;;;;;;5032287;28;20288;-66
2022/04/28 01:42:48;;;;;;;11.37;9.03;;;4.30;94.10;;;;;;5003167;28;20194;-66
2022/04/28 01:45:15;;;;;;;8.87;7.53;;;4.30;94.00;;;;;;5048733;28;20230;-66
2022/04/28 01:47:41;;;;;;;11.60;8.20;;;4.30;94.00;;;;;;5048442;28;20449;-66
2022/04/28 01:50:10;;;;;;;9.43;7.20;;;4.30;94.10;;;;;;5015222;28;20410;-66
2022/04/28 01:55:21;;;;;;;8.80;6.73;;;4.30;94.20;;;;;;5016332;28;20410;-66
2022/04/28 01:57:47;;;;;;;9.47;7.37;;;4.20;94.10;;;;;;5031844;28;20430;-66
2022/04/28 02:00:14;;;;;;;14.57;7.83;;;4.20;94.10;;;;;;5048071;28;20426;-66
2022/04/28 02:02:40;;;;;;;11.83;8.33;;;4.20;94.10;;;;;;5048369;28;20469;-65
2022/04/28 02:05:07;;;;;;;11.13;8.90;;;4.20;94.10;;;;;;5015153;28;20418;-64
2022/04/28 02:07:33;;;;;;;11.13;7.87;;;4.20;94.00;;;;;;5008061;28;20445;-64
2022/04/28 02:10:00;;;;;;;11.67;8.83;;;4.10;94.10;;;;;;5009773;28;20445;-64
2022/04/28 02:12:26;;;;;;;13.07;8.80;;;4.20;94.10;;;;;;5048060;28;20415;-64
2022/04/28 02:14:53;;;;;;;11.37;8.33;;;4.20;94.20;;;;;;5034236;28;20446;-64
2022/04/28 02:17:20;;;;;;;9.53;8.17;;;4.10;94.10;;;;;;5018277;28;20429;-64
2022/04/28 02:19:46;;;;;;;11.80;8.17;;;4.20;94.20;;;;;;5034204;28;20454;-64
2022/04/28 02:22:12;;;;;;;9.67;7.47;;;4.20;94.10;;;;;;5033529;28;20417;-64
2022/04/28 02:24:38;;;;;;;13.17;9.27;;;4.20;94.20;;;;;;4999026;28;20188;-64
2022/04/28 02:27:04;;;;;;;10.37;8.20;;;4.10;94.00;;;;;;5030926;28;20188;-64
2022/04/28 02:29:30;;;;;;;12.27;8.13;;;4.10;93.90;;;;;;5030760;28;20622;-64
2022/04/28 02:31:56;;;;;;;13.77;9.27;;;4.10;94.10;;;;;;5031098;28;20427;-64
2022/04/28 02:34:22;;;;;;;10.23;8.53;;;4.10;94.10;;;;;;5014758;28;20184;-66
2022/04/28 02:36:48;;;;;;;9.30;7.83;;;4.10;94.10;;;;;;5014203;28;20195;-66
2022/04/28 02:39:14;;;;;;;11.17;8.90;;;4.10;94.10;;;;;;5042594;28;20234;-66
2022/04/28 02:41:41;;;;;;;10.57;8.47;;;4.10;94.00;;;;;;5050966;28;20472;-68
2022/04/28 02:44:07;;;;;;;11.07;8.57;;;4.00;93.90;;;;;;5046820;28;20481;-65
2022/04/28 02:46:33;;;;;;;8.93;6.83;;;4.00;93.90;;;;;;5033728;28;20484;-65
2022/04/28 02:48:59;;;;;;;11.50;8.63;;;4.00;93.90;;;;;;5017534;28;20440;-65
2022/04/28 02:51:25;;;;;;;13.17;8.47;;;4.00;94.00;;;;;;5031196;28;20425;-66
2022/04/28 02:53:51;;;;;;;9.97;8.20;;;4.00;94.10;;;;;;5049307;28;20456;-66
2022/04/28 02:56:17;;;;;;;12.47;7.77;;;4.00;94.00;;;;;;5020138;28;20418;-68
2022/04/28 02:58:42;;;;;;;11.97;7.83;;;4.00;94.00;;;;;;5017164;28;20222;-67
2022/04/28 03:01:08;;;;;;;11.57;8.67;;;4.00;94.10;;;;;;5049651;28;20187;-67
2022/04/28 03:03:34;;;;;;;12.50;7.83;;;3.90;94.00;;;;;;5017165;28;20191;-66
2022/04/28 03:11:30;;;;;;;13.00;8.10;;;3.90;93.90;;;;;;5033533;28;20453;-64
2022/04/28 03:13:57;;;;;;;13.03;8.63;;;3.90;94.00;;;;;;5063098;28;20446;-65
2022/04/28 03:16:23;;;;;;;9.77;8.30;;;3.90;94.00;;;;;;5032570;28;20433;-65
2022/04/28 03:18:49;;;;;;;9.67;7.37;;;3.80;93.90;;;;;;5016287;28;21010;-65
2022/04/28 03:21:15;;;;;;;12.97;8.47;;;3.80;94.00;;;;;;5066019;28;20420;-65
2022/04/28 03:23:41;;;;;;;10.90;8.30;;;3.80;93.90;;;;;;5049523;28;20429;-64
2022/04/28 03:26:07;;;;;;;12.20;8.43;;;3.80;93.80;;;;;;5033036;28;20427;-65
2022/04/28 03:28:35;;;;;;;9.27;7.63;;;3.80;94.00;;;;;;5049552;28;20191;-65
2022/04/28 03:31:05;;;;;;;14.17;8.37;;;3.80;94.00;;;;;;5049203;28;20464;-65
2022/04/28 03:33:31;;;;;;;11.07;9.20;;;3.80;93.90;;;;;;5046929;28;20444;-65
2022/04/28 03:35:57;;;;;;;12.30;8.73;;;3.80;93.90;;;;;;5046925;28;20429;-65
2022/04/28 03:38:23;;;;;;;9.07;7.93;;;3.80;94.00;;;;;;5016160;28;20486;-65
2022/04/28 03:40:49;;;;;;;11.20;8.80;;;3.70;93.90;;;;;;5065849;28;20213;-65
2022/04/28 03:43:15;;;;;;;12.43;9.77;;;3.70;94.00;;;;;;5049642;28;20275;-64
2022/04/28 03:45:41;;;;;;;13.40;9.27;;;3.80;94.00;;;;;;5049307;28;20201;-64
2022/04/28 03:48:10;;;;;;;14.07;8.30;;;3.70;93.80;;;;;;5015976;28;20186;-64
2022/04/28 03:50:39;;;;;;;11.23;7.90;;;3.70;94.00;;;;;;5032683;28;20435;-64
2022/04/28 03:53:06;;;;;;;10.93;7.43;;;3.60;93.40;;;;;;5016222;28;20433;-63
2022/04/28 03:55:32;;;;;;;9.33;8.20;;;3.60;93.80;;;;;;5016864;28;20418;-63
2022/04/28 03:57:58;;;;;;;12.73;9.20;;;3.60;93.70;;;;;;5032598;28;20470;-63
2022/04/28 04:00:25;;;;;;;11.90;8.63;;;3.60;93.90;;;;;;5013570;28;20201;-63
2022/04/28 04:02:51;;;;;;;11.93;8.37;;;3.60;93.80;;;;;;5012883;28;20222;-63
2022/04/28 04:05:16;;;;;;;11.17;8.07;;;3.60;94.00;;;;;;5017008;28;20916;-63
2022/04/28 04:07:43;;;;;;;11.53;8.40;;;3.60;93.70;;;;;;5016083;28;20277;-63
2022/04/28 04:10:13;;;;;;;10.70;8.40;;;3.60;93.70;;;;;;5015869;28;20206;-63
2022/04/28 04:12:39;;;;;;;12.07;9.10;;;3.60;93.70;;;;;;5029974;28;20453;-63
2022/04/28 04:15:06;;;;;;;10.47;6.67;;;3.60;93.60;;;;;;5062563;28;20454;-63
2022/04/28 04:17:40;;;;;;;10.50;7.53;;;3.60;93.90;;;;;;5032782;28;20457;-61
2022/04/28 04:20:07;;;;;;;13.30;9.70;;;3.60;93.90;;;;;;5052267;28;20438;-63
2022/04/28 04:22:32;;;;;;;11.77;8.00;;;3.60;93.60;;;;;;5005714;28;20437;-63
2022/04/28 04:24:58;;;;;;;10.70;8.37;;;3.60;93.70;;;;;;5016422;28;20449;-63
2022/04/28 04:27:24;;;;;;;8.20;6.67;;;3.60;93.60;;;;;;5016305;28;20204;-64
2022/04/28 04:29:50;;;;;;;8.40;7.27;;;3.60;93.60;;;;;;5012638;28;20242;-62
2022/04/28 04:32:18;;;;;;;8.90;8.00;;;3.60;93.40;;;;;;5029273;28;20462;-62
2022/04/28 04:34:50;;;;;;;9.77;7.47;;;3.60;93.50;;;;;;5045064;28;20192;-62
2022/04/28 04:37:15;;;;;;;8.60;6.80;;;3.60;93.60;;;;;;5029979;28;20435;-62
2022/04/28 04:39:41;;;;;;;10.07;8.10;;;3.60;93.70;;;;;;5049144;28;20499;-62
2022/04/28 04:42:07;;;;;;;12.73;8.40;;;3.60;93.70;;;;;;5065073;28;20187;-63
2022/04/28 04:44:33;;;;;;;11.63;8.93;;;3.60;93.80;;;;;;5014475;28;20202;-62
2022/04/28 04:46:59;;;;;;;10.03;7.00;;;3.70;93.90;;;;;;5014279;28;20437;-62
2022/04/28 04:49:24;;;;;;;9.73;8.20;;;3.70;93.90;;;;;;5006059;28;20253;-62
2022/04/28 04:51:50;;;;;;;8.17;6.73;;;3.80;94.00;;;;;;5031898;28;20191;-62
2022/04/28 04:54:16;;;;;;;10.17;8.07;;;3.80;93.90;;;;;;5032231;28;20194;-63
2022/04/28 04:56:42;;;;;;;7.13;6.47;;;3.80;93.90;;;;;;5031043;28;20184;-62
2022/04/28 04:59:08;;;;;;;11.30;8.67;;;3.80;94.00;;;;;;5033380;28;20215;-63
2022/04/28 05:01:33;;;;;;;10.37;6.80;;;3.80;94.10;;;;;;5024654;28;20197;-64
2022/04/28 05:03:59;;;;;;;12.60;7.93;;;3.90;94.20;;;;;;5047105;28;20195;-63
2022/04/28 05:06:25;;;;;;;9.93;8.20;;;4.00;94.20;;;;;;5034235;28;20178;-64
2022/04/28 05:08:51;;;;;;;10.93;8.33;;;4.00;94.30;;;;;;5034214;28;20249;-63
2022/04/28 05:11:17;;;;;;;8.17;7.37;;;4.10;94.30;;;;;;5047406;28;20217;-64
2022/04/28 05:13:43;;;;;;;8.93;7.37;;;4.10;94.20;;;;;;5044503;28;20241;-65
2022/04/28 05:16:09;;;;;;;12.37;8.90;;;4.20;94.40;;;;;;5018189;28;20490;-64
2022/04/28 05:18:34;;;;;;;12.57;10.17;;;4.20;94.50;;;;;;5018518;28;20211;-64
2022/04/28 05:21:00;;;;;;;11.80;9.33;;;4.30;94.60;;;;;;5034537;28;20187;-65
2022/04/28 05:23:26;;;;;;;10.13;8.67;;;4.30;94.60;;;;;;5034128;28;20191;-65
2022/04/28 05:25:52;;;;;;;12.03;9.57;;;4.40;94.70;;;;;;5017371;28;20195;-63
2022/04/28 05:28:18;;;;;;;16.53;9.83;;;4.50;94.70;;;;;;5017873;28;20214;-63
2022/04/28 05:30:44;;;;;;;11.50;10.13;;;4.60;94.70;;;;;;5030402;28;20187;-63
2022/04/28 05:33:09;;;;;;;10.87;8.53;;;4.70;94.90;;;;;;5034242;28;20460;-65
2022/04/28 05:35:39;;;;;;;10.13;8.30;;;4.70;94.80;;;;;;5017818;28;20224;-66
2022/04/28 05:38:07;;;;;;;11.87;8.30;;;4.80;94.90;;;;;;5061031;28;20237;-63
2022/04/28 05:40:33;;;;;;;10.80;8.83;;;4.80;94.90;;;;;;5030360;28;20513;-63
2022/04/28 05:45:43;;;;;;;10.40;9.23;;;4.90;94.90;;;;;;5031579;28;20262;-63
2022/04/28 05:48:10;;;;;;;13.77;10.27;;;5.00;94.90;;;;;;5032947;28;20540;-63
2022/04/28 05:50:40;;;;;;;10.47;8.13;;;5.00;94.90;;;;;;5017522;28;20206;-63
2022/04/28 05:53:06;;;;;;;11.63;10.00;;;5.00;94.90;;;;;;5027150;28;20445;-63
2022/04/28 05:55:32;;;;;;;10.40;9.17;;;5.10;94.90;;;;;;5016205;28;20418;-63
2022/04/28 05:57:59;;;;;;;12.10;8.83;;;5.10;95.00;;;;;;5005024;28;20232;-63
2022/04/28 06:00:28;;;;;;;14.47;9.63;;;5.20;95.10;;;;;;5012659;28;20513;-63
2022/04/28 06:02:54;;;;;;;10.93;9.53;;;5.30;95.00;;;;;;5030537;28;20461;-63
2022/04/28 06:05:20;;;;;;;12.57;10.10;;;5.30;94.90;;;;;;4997357;28;20430;-63
2022/04/28 06:07:46;;;;;;;13.47;11.47;;;5.40;94.90;;;;;;5012672;28;20427;-64
2022/04/28 06:10:13;;;;;;;14.10;10.10;;;5.50;95.00;;;;;;4997262;28;20211;-63
2022/04/28 06:12:40;;;;;;;12.73;10.40;;;5.50;95.10;;;;;;5014495;28;20192;-63
2022/04/28 06:15:06;;;;;;;15.47;10.30;;;5.60;95.10;;;;;;5028817;28;20450;-63
2022/04/28 06:17:32;;;;;;;16.40;10.73;;;5.60;95.20;;;;;;5011909;28;20457;-63
2022/04/28 06:19:58;;;;;;;12.73;9.67;;;5.70;95.20;;;;;;5013159;28;20471;-63
2022/04/28 06:22:23;;;;;;;10.50;8.97;;;5.80;95.30;;;;;;5031601;28;20199;-63
2022/04/28 06:24:53;;;;;;;10.73;9.63;;;5.80;95.30;;;;;;5015239;28;20268;-63
2022/04/28 06:27:20;;;;;;;13.33;10.90;;;6.00;95.10;;;;;;5006433;28;20782;-63
2022/04/28 06:29:48;;;;;;;12.30;10.90;;;6.10;94.90;;;;;;5029452;28;20426;-63
2022/04/28 06:32:17;;;;;;;12.90;10.67;;;6.30;94.70;;;;;;5026874;28;20457;-63
2022/04/28 06:34:43;;;;;;;13.87;10.87;;;6.40;94.20;;;;;;5011433;28;20460;-63
2022/04/28 06:37:09;;;;;;;11.57;9.20;;;6.40;94.10;;;;;;5011956;28;20467;-63
2022/04/28 06:39:35;;;;;;;10.60;9.20;;;6.50;93.90;;;;;;5012885;28;20517;-63
2022/04/28 06:42:01;;;;;;;10.07;8.97;;;6.80;91.90;;;;;;5009991;28;20194;-64
2022/04/28 06:44:26;;;;;;;10.87;8.97;;;7.00;91.20;;;;;;5020574;28;20238;-63
2022/04/28 06:46:52;;;;;;;23.63;9.10;;;7.20;89.60;;;;;;5009747;28;20169;-63
2022/04/28 06:49:17;;;;;;;11.50;8.80;;;7.60;87.80;;;;;;5025858;28;20211;-63
2022/04/28 06:51:43;;;;;;;10.33;7.50;;;7.60;88.40;;;;;;5009639;28;20176;-63
2022/04/28 06:54:09;;;;;;;13.60;7.40;;;7.70;86.00;;;;;;5026184;28;20238;-63
2022/04/28 06:56:35;;;;;;;10.03;7.33;;;7.90;85.70;;;;;;5025784;28;20196;-63
2022/04/28 06:59:01;;;;;;;10.37;7.10;;;7.80;87.30;;;;;;5032111;28;20307;-63
2022/04/28 07:01:26;;;;;;;12.87;7.00;;;7.90;86.60;;;;;;5029115;28;20238;-63
2022/04/28 07:03:52;;;;;;;36.53;10.23;;;8.00;86.30;;;;;;4993955;28;20191;-63
2022/04/28 07:06:17;;;;;;;8.53;7.33;;;8.20;85.20;;;;;;5010813;28;20226;-63
2022/04/28 07:08:43;;;;;;;9.43;6.73;;;8.40;84.70;;;;;;5025343;28;20230;-63
2022/04/28 07:11:10;;;;;;;9.33;7.03;;;8.30;85.20;;;;;;5001419;28;20199;-63
2022/04/28 07:13:37;;;;;;;9.43;6.63;;;8.50;84.90;;;;;;5010603;28;20187;-63
2022/04/28 07:16:06;;;;;;;9.77;6.07;;;8.60;85.10;;;;;;5028730;28;20504;-63
2022/04/28 07:18:32;;;;;;;9.10;6.50;;;8.50;84.40;;;;;;5010815;28;20478;-63
2022/04/28 07:21:03;;;;;;;7.00;4.97;;;8.60;84.50;;;;;;5011457;28;20458;-63
2022/04/28 07:23:30;;;;;;;8.60;5.80;;;8.80;81.60;;;;;;5011642;28;20631;-63
2022/04/28 07:25:56;;;;;;;6.50;4.83;;;8.80;79.60;;;;;;5012260;28;20434;-64
2022/04/28 07:28:22;;;;;;;6.90;4.93;;;8.90;78.00;;;;;;5014420;28;20876;-62
2022/04/28 07:30:47;;;;;;;6.73;4.90;;;9.00;77.60;;;;;;5009672;28;21048;-63
2022/04/28 07:33:13;;;;;;;5.40;4.63;;;9.10;78.00;;;;;;5044073;28;20180;-63
2022/04/28 07:35:39;;;;;;;5.93;4.63;;;9.10;78.10;;;;;;5011491;28;20176;-63
2022/04/28 07:38:05;;;;;;;6.77;5.37;;;9.30;74.40;;;;;;5028162;28;20293;-64
2022/04/28 07:40:31;;;;;;;5.80;5.10;;;9.40;72.50;;;;;;5027753;28;20187;-63
2022/04/28 07:42:57;;;;;;;6.93;4.67;;;9.60;71.20;;;;;;5011569;28;20426;-64
2022/04/28 07:45:23;;;;;;;5.73;4.20;;;9.70;72.20;;;;;;5026561;28;20457;-63
2022/04/28 07:47:49;;;;;;;7.57;4.83;;;9.90;68.80;;;;;;5024714;28;20722;-63
2022/04/28 07:50:16;;;;;;;5.10;4.60;;;9.90;69.50;;;;;;5008852;28;20189;-64
2022/04/28 07:52:43;;;;;;;6.60;4.30;;;10.20;68.00;;;;;;5011549;28;20443;-63
2022/04/28 07:55:09;;;;;;;4.83;4.07;;;10.10;67.60;;;;;;5029396;28;20596;-63
2022/04/28 07:57:35;;;;;;;5.50;4.87;;;10.00;68.40;;;;;;5004023;28;20446;-63
2022/04/28 08:00:03;;;;;;;6.23;4.87;;;10.20;67.60;;;;;;5028443;28;20995;-63
2022/04/28 08:02:29;;;;;;;4.83;4.40;;;10.20;68.80;;;;;;5027067;28;20194;-63
2022/04/28 08:04:55;;;;;;;6.60;4.77;;;10.20;69.80;;;;;;4997192;28;20438;-63
2022/04/28 08:07:22;;;;;;;5.87;4.80;;;10.30;68.90;;;;;;5038618;28;20194;-63
2022/04/28 08:09:48;;;;;;;6.50;4.70;;;10.50;66.30;;;;;;4994912;28;20457;-63
2022/04/28 08:12:14;;;;;;;4.43;4.03;;;10.60;64.60;;;;;;5011325;28;20439;-63
2022/04/28 08:14:39;;;;;;;4.30;3.90;;;10.70;65.60;;;;;;5011278;28;20209;-63
2022/04/28 08:17:05;;;;;;;5.97;4.53;;;10.70;65.10;;;;;;5028428;28;20262;-63
2022/04/28 08:19:32;;;;;;;6.70;4.10;;;10.80;65.60;;;;;;5008415;28;20215;-63
2022/04/28 08:21:58;;;;;;;5.10;4.23;;;10.80;65.50;;;;;;5027375;28;20201;-63
2022/04/28 08:24:24;;;;;;;6.20;3.50;;;10.80;66.90;;;;;;5028796;28;20185;-63
2022/04/28 08:26:51;;;;;;;4.80;3.77;;;10.70;67.30;;;;;;5018142;28;20446;-64
2022/04/28 08:29:17;;;;;;;4.23;3.83;;;10.70;67.20;;;;;;5015348;28;20192;-64
2022/04/28 08:31:45;;;;;;;5.47;3.73;;;10.80;67.60;;;;;;5031071;28;20539;-63
2022/04/28 08:34:13;;;;;;;4.73;3.67;;;10.90;66.20;;;;;;5014164;28;20184;-63
2022/04/28 08:36:40;;;;;;;4.37;3.90;;;10.90;68.30;;;;;;5030541;28;20195;-63
2022/04/28 08:39:06;;;;;;;4.90;4.23;;;11.00;71.10;;;;;;5029837;28;20239;-63
2022/04/28 08:41:45;;;;;;;5.13;4.00;;;11.10;69.30;;;;;;5014065;28;20211;-63
2022/04/28 08:44:21;;;;;;;4.10;3.67;;;11.20;66.90;;;;;;5014209;28;20191;-63
2022/04/28 08:46:53;;;;;;;4.23;3.83;;;11.30;64.90;;;;;;5013960;28;20233;-61
2022/04/28 08:49:25;;;;;;;5.50;3.70;;;11.50;62.00;;;;;;5018429;28;20662;-61
2022/04/28 08:51:54;;;;;;;4.63;4.13;;;11.50;63.20;;;;;;5034566;28;20275;-63
2022/04/28 08:54:21;;;;;;;5.00;4.50;;;11.60;59.80;;;;;;5021940;28;20302;-63
2022/04/28 08:56:47;;;;;;;3.47;3.13;;;11.60;61.70;;;;;;5031294;28;20219;-64
2022/04/28 08:59:16;;;;;;;5.43;3.80;;;11.50;60.80;;;;;;5034878;28;20222;-64
2022/04/28 09:01:42;;;;;;;4.37;3.40;;;11.60;62.20;;;;;;5015170;28;20235;-64
2022/04/28 09:04:10;;;;;;;3.90;3.50;;;11.70;63.10;;;;;;5030219;28;20210;-64
2022/04/28 09:06:40;;;;;;;3.60;3.20;;;11.90;65.50;;;;;;5014091;28;20168;-64
2022/04/28 09:09:09;;;;;;;3.43;3.13;;;12.00;65.50;;;;;;5029951;28;20234;-64
2022/04/28 09:11:37;;;;;;;3.73;3.40;;;12.20;61.00;;;;;;5021240;28;20257;-64
2022/04/28 09:16:47;;;;;;;3.37;3.07;;;12.30;61.10;;;;;;5033049;28;20212;-64
2022/04/28 09:19:16;;;;;;;6.97;3.30;;;12.50;60.30;;;;;;5015496;28;20199;-64
2022/04/28 09:21:43;;;;;;;5.13;4.00;;;12.70;56.10;;;;;;5013953;28;20187;-64
2022/04/28 09:24:10;;;;;;;5.50;3.67;;;12.80;55.50;;;;;;5030560;28;20242;-64
2022/04/28 09:26:36;;;;;;;5.57;3.73;;;12.90;53.70;;;;;;5012563;28;20187;-64
2022/04/28 09:29:03;;;;;;;5.60;3.50;;;13.10;53.30;;;;;;5046899;28;20195;-64
2022/04/28 09:31:37;;;;;;;4.57;3.53;;;13.30;50.80;;;;;;5046351;28;20224;-64
2022/04/28 09:34:06;;;;;;;3.63;2.93;;;13.20;55.20;;;;;;5050774;28;20195;-64
2022/04/28 09:36:32;;;;;;;5.63;3.43;;;13.30;55.50;;;;;;5013204;28;20179;-64
2022/04/28 09:38:58;;;;;;;3.80;3.03;;;13.30;54.00;;;;;;5029231;28;20322;-64
2022/04/28 09:44:12;;;;;;;4.03;2.90;;;13.30;53.90;;;;;;5014730;28;20231;-66
2022/04/28 09:46:42;;;;;;;3.33;2.90;;;13.30;54.30;;;;;;5026466;28;20270;-67
2022/04/28 09:49:12;;;;;;;3.17;2.83;;;13.30;53.60;;;;;;5016940;28;20197;-67
2022/04/28 09:51:39;;;;;;;3.10;2.90;;;13.30;54.00;;;;;;5032274;28;20205;-66
2022/04/28 09:54:11;;;;;;;7.03;3.30;;;13.40;53.40;;;;;;5033871;28;20211;-67
2022/04/28 09:56:38;;;;;;;3.83;2.77;;;13.70;53.30;;;;;;5032865;28;20195;-66
2022/04/28 09:59:08;;;;;;;3.37;3.07;;;13.70;49.50;;;;;;5033496;28;20257;-66
2022/04/28 10:01:35;;;;;;;3.33;3.03;;;13.70;50.50;;;;;;5032105;28;20194;-66
2022/04/28 10:04:01;;;;;;;2.77;2.53;;;13.60;50.10;;;;;;5015672;28;20203;-67
2022/04/28 10:06:34;;;;;;;3.93;3.17;;;13.50;50.90;;;;;;5021899;28;20199;-66
2022/04/28 10:09:04;;;;;;;5.20;3.57;;;13.50;51.00;;;;;;5033216;28;20210;-66
2022/04/28 10:11:30;;;;;;;3.77;2.80;;;13.50;50.60;;;;;;5032028;28;20527;-66
2022/04/28 10:13:57;;;;;;;3.17;2.87;;;13.40;51.60;;;;;;5029368;28;20662;-67
2022/04/28 10:16:24;;;;;;;3.47;3.17;;;13.50;51.10;;;;;;5032829;28;20197;-66
2022/04/28 10:19:11;;;;;;;3.73;3.03;;;13.50;49.90;;;;;;5032723;28;20199;-66
2022/04/28 10:21:53;;;;;;;3.63;3.33;;;13.60;51.10;;;;;;5016491;28;20230;-66
2022/04/28 10:33:02;;;;;;;3.40;3.10;;;14.10;50.50;;;;;;5012637;28;20283;-67
2022/04/28 10:35:53;;;;;;;3.87;3.23;;;14.30;50.60;;;;;;5028479;28;20193;-67
2022/04/28 10:38:31;;;;;;;3.93;3.33;;;14.50;47.30;;;;;;5005847;28;20239;-67
2022/04/28 10:41:01;;;;;;;4.40;3.60;;;14.50;46.80;;;;;;5009262;28;20223;-67
2022/04/28 10:43:33;;;;;;;4.50;3.20;;;14.50;51.30;;;;;;4996260;28;20200;-67
2022/04/28 10:46:22;;;;;;;3.30;3.00;;;14.50;50.10;;;;;;5020959;28;20290;-67
2022/04/28 10:48:53;;;;;;;3.77;3.10;;;14.60;49.60;;;;;;5012817;28;20191;-67
2022/04/28 10:51:22;;;;;;;3.53;3.23;;;14.70;51.30;;;;;;5029231;28;20270;-67
2022/04/28 10:54:07;;;;;;;5.03;3.10;;;14.70;47.20;;;;;;5029399;28;20192;-67
2022/04/28 10:56:42;;;;;;;3.70;3.27;;;14.80;46.10;;;;;;5014261;28;20262;-67
2022/04/28 10:59:34;;;;;;;3.30;3.00;;;15.00;50.20;;;;;;5028623;28;20211;-67
2022/04/28 11:02:15;;;;;;;3.40;3.10;;;15.10;47.60;;;;;;5013369;28;20160;-67
2022/04/28 11:04:56;;;;;;;3.50;3.20;;;15.20;44.80;;;;;;5025835;28;20271;-66
2022/04/28 11:07:25;;;;;;;3.63;2.67;;;15.30;49.80;;;;;;5029879;28;20191;-64
2022/04/28 11:09:55;;;;;;;5.20;3.20;;;15.40;49.40;;;;;;5027922;28;20192;-64
2022/04/28 11:12:22;;;;;;;3.50;3.20;;;15.60;46.20;;;;;;5045013;28;20176;-66
2022/04/28 11:14:59;;;;;;;2.87;2.67;;;15.90;45.50;;;;;;5009517;28;20203;-66
2022/04/28 11:17:28;;;;;;;3.17;2.60;;;16.00;42.20;;;;;;5012653;28;20192;-64
2022/04/28 11:19:54;;;;;;;3.47;2.87;;;16.00;42.00;;;;;;5013207;28;20212;-66
2022/04/28 11:22:21;;;;;;;4.33;3.10;;;16.00;43.80;;;;;;5012294;28;20180;-66
2022/04/28 11:24:51;;;;;;;4.13;3.00;;;16.00;43.70;;;;;;5028642;28;20188;-66
2022/04/28 11:27:22;;;;;;;2.67;2.47;;;16.20;43.10;;;;;;5022628;28;20634;-65
2022/04/28 11:29:50;;;;;;;3.77;3.40;;;16.20;45.20;;;;;;4994594;28;20216;-65
2022/04/28 11:32:17;;;;;;;4.90;3.43;;;16.10;42.70;;;;;;4999312;28;20240;-65
2022/04/28 11:34:44;;;;;;;5.60;2.80;;;16.20;46.40;;;;;;5026997;28;20184;-65
2022/04/28 11:37:22;;;;;;;5.60;3.10;;;16.30;43.70;;;;;;5035446;28;20192;-66
2022/04/28 11:39:53;;;;;;;5.57;2.67;;;16.30;43.20;;;;;;5029839;28;20233;-63
2022/04/28 11:42:20;;;;;;;4.43;3.17;;;16.20;41.20;;;;;;5029294;28;20195;-64
2022/04/28 11:44:47;;;;;;;3.00;2.67;;;16.00;41.60;;;;;;5033859;28;20246;-63
2022/04/28 11:47:13;;;;;;;2.40;2.20;;;15.90;41.50;;;;;;5037216;28;20250;-64
2022/04/28 11:49:41;;;;;;;3.20;2.90;;;15.90;43.10;;;;;;5018604;28;20668;-64
2022/04/28 11:52:21;;;;;;;3.47;3.17;;;16.10;43.90;;;;;;5029871;28;20204;-63
2022/04/28 11:55:12;;;;;;;3.40;3.00;;;16.60;44.90;;;;;;5030628;28;20183;-64
2022/04/28 11:57:39;;;;;;;2.60;2.40;;;16.90;39.60;;;;;;5012436;28;20224;-63
2022/04/28 12:00:13;;;;;;;2.77;2.57;;;17.00;43.00;;;;;;5027518;28;20207;-64
2022/04/28 12:02:41;;;;;;;2.50;2.30;;;17.00;41.00;;;;;;5020315;28;20549;-63
2022/04/28 12:05:25;;;;;;;2.90;2.50;;;17.10;42.90;;;;;;5020014;28;20184;-63
2022/04/28 12:07:52;;;;;;;3.30;2.50;;;17.30;40.60;;;;;;5010356;28;20282;-63
2022/04/28 12:15:52;;;;;;;2.70;2.50;;;18.00;38.70;;;;;;5044677;28;20229;-63
2022/04/28 12:21:21;;;;;;;2.73;2.50;;;17.80;37.20;;;;;;5030732;28;20178;-63
2022/04/28 12:23:58;;;;;;;2.60;2.40;;;18.00;40.50;;;;;;5030332;28;20213;-63
2022/04/28 12:26:25;;;;;;;3.03;2.73;;;18.40;40.40;;;;;;5030712;28;20192;-63
2022/04/28 12:28:52;;;;;;;3.57;2.67;;;18.90;40.00;;;;;;5037519;28;20195;-63
2022/04/28 12:31:29;;;;;;;2.33;2.13;;;19.50;39.80;;;;;;5026488;28;20195;-63
2022/04/28 12:33:56;;;;;;;6.67;2.93;;;20.20;37.60;;;;;;5026922;28;20199;-62
2022/04/28 12:36:22;;;;;;;2.63;2.30;;;20.70;37.70;;;;;;5061941;28;20194;-62
2022/04/28 12:38:53;;;;;;;2.37;2.10;;;21.10;35.30;;;;;;4999791;28;20335;-62
2022/04/28 12:41:23;;;;;;;3.03;2.20;;;21.60;33.40;;;;;;5019879;28;20191;-63
2022/04/28 12:43:56;;;;;;;2.33;2.13;;;21.30;33.10;;;;;;5033357;28;20199;-63
2022/04/28 12:46:49;;;;;;;4.03;2.40;;;21.20;32.50;;;;;;5027206;28;20180;-62
2022/04/28 12:49:19;;;;;;;3.50;2.43;;;21.30;31.80;;;;;;5033636;28;20189;-62
2022/04/28 12:51:48;;;;;;;2.13;2.03;;;21.50;31.30;;;;;;5018605;28;20187;-63
2022/04/28 12:54:27;;;;;;;3.13;2.30;;;21.20;34.10;;;;;;5035946;28;20286;-63
2022/04/28 12:57:02;;;;;;;2.43;2.23;;;21.60;30.30;;;;;;5052962;28;20195;-62
2022/04/28 12:59:37;;;;;;;3.50;2.30;;;21.90;30.50;;;;;;5046382;28;20219;-62
2022/04/28 13:02:04;;;;;;;2.70;2.00;;;22.00;30.90;;;;;;5017097;28;20176;-63
2022/04/28 13:04:34;;;;;;;2.23;1.93;;;21.70;28.70;;;;;;4997453;28;20201;-64
2022/04/28 13:07:01;;;;;;;3.80;2.43;;;21.90;30.20;;;;;;5015371;28;20202;-63
2022/04/28 13:09:29;;;;;;;3.10;2.07;;;21.10;30.10;;;;;;5004280;28;20206;-63
2022/04/28 13:11:55;;;;;;;2.40;2.20;;;20.50;28.80;;;;;;5048509;28;20199;-63
2022/04/28 13:14:22;;;;;;;3.17;2.23;;;19.60;29.90;;;;;;5014945;28;20214;-63
2022/04/28 13:16:50;;;;;;;2.47;2.27;;;19.30;32.30;;;;;;5029956;28;20204;-63
2022/04/28 13:19:16;;;;;;;3.00;2.17;;;19.30;33.70;;;;;;5030949;28;20219;-64
2022/04/28 13:21:42;;;;;;;3.20;2.40;;;19.90;38.20;;;;;;5049042;28;20176;-63
2022/04/28 13:24:08;;;;;;;4.00;2.37;;;20.70;33.60;;;;;;5047424;28;20192;-63
2022/04/28 13:26:35;;;;;;;2.67;2.20;;;21.20;31.60;;;;;;5049069;28;20207;-63